createdAt,value
2022-12-16T00:01:28.405Z,56.80
2022-12-16T00:03:59.935Z,42.33
2022-12-16T00:06:31.294Z,45.83
2022-12-16T00:09:00.859Z,46.47
2022-12-16T00:11:32.156Z,46.03
2022-12-16T00:14:00.588Z,39.63
2022-12-16T00:16:30.487Z,44.27
2022-12-16T00:18:58.974Z,42.57
2022-12-16T00:21:29.628Z,47.40
2022-12-16T00:23:58.791Z,41.23
2022-12-16T00:26:27.259Z,40.80
2022-12-16T00:28:55.774Z,39.77
2022-12-16T00:31:24.491Z,42.17
2022-12-16T00:33:57.333Z,44.30
2022-12-16T00:36:25.903Z,46.33
2022-12-16T00:38:54.524Z,44.27
2022-12-16T00:41:23.452Z,48.37
2022-12-16T00:43:51.913Z,41.57
2022-12-16T00:46:20.457Z,43.83
2022-12-16T00:48:48.887Z,45.27
2022-12-16T00:51:18.766Z,40.90
2022-12-16T00:53:47.418Z,41.77
2022-12-16T00:56:16.126Z,41.90
2022-12-16T00:58:44.974Z,43.77
2022-12-16T01:01:13.586Z,42.70
2022-12-16T01:03:42.449Z,42.57
2022-12-16T01:06:13.145Z,43.47
2022-12-16T01:08:48.573Z,38.60
2022-12-16T01:11:18.750Z,44.13
2022-12-16T01:13:50.560Z,40.03
2022-12-16T01:16:20.819Z,48.07
2022-12-16T01:18:49.357Z,40.43
2022-12-16T01:21:18.157Z,41.03
2022-12-16T01:23:48.901Z,40.37
2022-12-16T01:26:19.053Z,47.10
2022-12-16T01:28:49.609Z,43.87
2022-12-16T01:31:19.467Z,51.07
2022-12-16T01:33:48.730Z,45.33
2022-12-16T01:36:17.776Z,51.77
2022-12-16T01:38:47.721Z,60.63
2022-12-16T01:41:17.316Z,44.13
2022-12-16T01:43:46.917Z,47.93
2022-12-16T01:46:21.265Z,46.60
2022-12-16T01:48:55.074Z,48.73
2022-12-16T01:51:28.450Z,52.97
2022-12-16T01:54:02.690Z,44.87
2022-12-16T01:56:34.003Z,41.17
2022-12-16T01:59:03.196Z,44.73
2022-12-16T02:01:31.929Z,47.43
2022-12-16T02:04:03.878Z,43.43
2022-12-16T02:06:33.074Z,42.50
2022-12-16T02:09:07.423Z,40.17
2022-12-16T02:11:55.499Z,48.20
2022-12-16T02:14:50.438Z,41.10
2022-12-16T02:17:26.119Z,46.60
2022-12-16T02:20:26.584Z,59.27
2022-12-16T02:23:17.320Z,46.20
2022-12-16T02:26:09.899Z,49.10
2022-12-16T02:29:00.636Z,43.17
2022-12-16T02:31:36.189Z,36.87
2022-12-16T02:34:13.070Z,41.30
2022-12-16T02:36:57.823Z,43.80
2022-12-16T02:39:32.576Z,46.87
2022-12-16T02:42:10.472Z,39.57
2022-12-16T02:44:45.850Z,47.60
2022-12-16T02:47:15.691Z,35.27
2022-12-16T02:49:49.274Z,38.77
2022-12-16T02:52:20.682Z,39.37
2022-12-16T02:54:51.796Z,40.60
2022-12-16T02:57:51.566Z,36.00
2022-12-16T03:00:22.367Z,41.63
2022-12-16T03:02:58.971Z,37.77
2022-12-16T03:05:31.566Z,41.87
2022-12-16T03:08:03.097Z,37.77
2022-12-16T03:10:37.984Z,31.07
2022-12-16T03:13:08.470Z,37.17
2022-12-16T03:15:38.566Z,40.60
2022-12-16T03:18:11.430Z,38.57
2022-12-16T03:20:44.654Z,32.20
2022-12-16T03:23:17.297Z,36.03
2022-12-16T03:25:48.359Z,34.80
2022-12-16T03:28:29.895Z,33.10
2022-12-16T03:31:04.794Z,37.90
2022-12-16T03:33:41.276Z,43.23
2022-12-16T03:36:14.128Z,51.00
2022-12-16T03:38:44.709Z,36.23
2022-12-16T03:41:15.347Z,43.80
2022-12-16T03:43:44.342Z,47.37
2022-12-16T03:46:14.019Z,43.03
2022-12-16T03:48:49.889Z,41.37
2022-12-16T03:51:19.137Z,44.20
2022-12-16T03:53:47.741Z,47.83
2022-12-16T03:56:16.748Z,40.67
2022-12-16T03:58:47.059Z,49.30
2022-12-16T04:01:16.394Z,44.27
2022-12-16T04:03:45.028Z,43.17
2022-12-16T04:06:18.897Z,45.50
2022-12-16T04:08:51.137Z,45.10
2022-12-16T04:11:36.850Z,40.60
2022-12-16T04:14:22.889Z,46.60
2022-12-16T04:17:08.824Z,37.33
2022-12-16T04:19:56.241Z,42.83
2022-12-16T04:22:46.218Z,45.93
2022-12-16T04:25:18.152Z,43.53
2022-12-16T04:27:47.856Z,46.00
2022-12-16T04:30:20.590Z,49.13
2022-12-16T04:33:10.085Z,38.90
2022-12-16T04:35:55.869Z,37.53
2022-12-16T04:38:43.671Z,41.00
2022-12-16T04:41:29.906Z,33.43
2022-12-16T04:44:16.082Z,38.20
2022-12-16T04:47:02.823Z,36.70
2022-12-16T04:49:48.589Z,34.67
2022-12-16T04:52:34.759Z,45.13
2022-12-16T04:55:22.721Z,39.33
2022-12-16T04:58:10.356Z,38.20
2022-12-16T05:00:56.952Z,40.70
2022-12-16T05:03:42.822Z,39.67
2022-12-16T05:06:28.663Z,35.40
2022-12-16T05:09:14.856Z,34.97
2022-12-16T05:12:02.357Z,37.73
2022-12-16T05:14:48.467Z,43.30
2022-12-16T05:17:34.824Z,31.33
2022-12-16T05:20:21.007Z,30.37
2022-12-16T05:23:06.904Z,29.13
2022-12-16T05:25:51.904Z,33.07
2022-12-16T05:28:39.525Z,29.13
2022-12-16T05:31:25.363Z,30.73
2022-12-16T05:34:11.334Z,33.53
2022-12-16T05:36:57.441Z,34.77
2022-12-16T05:39:43.889Z,26.73
2022-12-16T05:42:29.853Z,33.23
2022-12-16T05:45:17.334Z,26.67
2022-12-16T05:48:06.538Z,30.63
2022-12-16T05:50:53.014Z,27.23
2022-12-16T05:53:42.067Z,39.87
2022-12-16T05:56:27.912Z,31.63
2022-12-16T05:59:13.955Z,35.47
2022-12-16T06:02:01.452Z,30.23
2022-12-16T06:04:47.350Z,28.97
2022-12-16T06:07:33.130Z,29.33
2022-12-16T06:10:18.877Z,31.70
2022-12-16T06:13:05.639Z,27.77
2022-12-16T06:15:52.095Z,27.53
2022-12-16T06:18:39.380Z,26.63
2022-12-16T06:21:25.394Z,27.10
2022-12-16T06:24:11.298Z,35.87
2022-12-16T06:26:53.787Z,27.63
2022-12-16T06:29:39.659Z,20.87
2022-12-16T06:32:25.387Z,34.93
2022-12-16T06:35:13.061Z,24.70
2022-12-16T06:37:58.695Z,30.67
2022-12-16T06:40:44.389Z,31.97
2022-12-16T06:43:31.219Z,25.57
2022-12-16T06:46:17.766Z,24.47
2022-12-16T06:49:03.675Z,24.90
2022-12-16T06:51:50.821Z,22.23
2022-12-16T06:54:36.493Z,25.23
2022-12-16T06:57:22.684Z,26.33
2022-12-16T07:00:08.530Z,30.97
2022-12-16T07:02:54.588Z,20.03
2022-12-16T07:05:40.511Z,24.17
2022-12-16T07:08:27.918Z,24.90
2022-12-16T07:11:17.053Z,27.70
2022-12-16T07:14:03.266Z,26.70
2022-12-16T07:16:49.233Z,32.27
2022-12-16T07:19:35.802Z,30.33
2022-12-16T07:22:21.975Z,27.93
2022-12-16T07:25:09.256Z,29.07
2022-12-16T07:28:12.155Z,24.50
2022-12-16T07:31:01.661Z,30.03
2022-12-16T07:33:47.578Z,22.97
2022-12-16T07:36:33.278Z,28.07
2022-12-16T07:39:19.350Z,28.07
2022-12-16T07:42:06.802Z,21.90
2022-12-16T07:44:52.422Z,22.70
2022-12-16T07:47:38.466Z,19.70
2022-12-16T07:50:25.255Z,21.73
2022-12-16T07:53:13.184Z,19.73
2022-12-16T07:55:59.113Z,23.43
2022-12-16T07:58:46.327Z,22.13
2022-12-16T08:01:33.143Z,45.80
2022-12-16T08:04:19.499Z,28.07
2022-12-16T08:07:05.465Z,26.37
2022-12-16T08:09:51.629Z,29.80
2022-12-16T08:12:37.383Z,44.03
2022-12-16T08:15:41.041Z,25.77
2022-12-16T08:18:26.757Z,27.60
2022-12-16T08:21:12.753Z,28.93
2022-12-16T08:23:58.689Z,21.73
2022-12-16T08:26:44.411Z,27.13
2022-12-16T08:29:46.168Z,31.97
2022-12-16T08:32:34.230Z,21.90
2022-12-16T08:35:20.311Z,15.67
2022-12-16T08:38:12.190Z,15.20
2022-12-16T08:41:01.119Z,22.90
2022-12-16T08:43:49.566Z,15.63
2022-12-16T08:46:35.955Z,18.50
2022-12-16T08:49:23.859Z,15.87
2022-12-16T08:52:10.212Z,15.63
2022-12-16T08:54:56.511Z,11.53
2022-12-16T08:57:42.476Z,13.13
2022-12-16T09:00:29.924Z,10.87
2022-12-16T09:03:16.951Z,14.10
2022-12-16T09:06:04.670Z,10.10
2022-12-16T09:08:51.202Z,9.23
2022-12-16T09:11:37.214Z,14.33
2022-12-16T09:14:23.105Z,9.93
2022-12-16T09:17:08.965Z,12.30
2022-12-16T09:19:55.306Z,10.83
2022-12-16T09:22:42.565Z,12.70
2022-12-16T09:25:28.656Z,8.63
2022-12-16T09:28:14.490Z,9.30
2022-12-16T09:31:00.465Z,12.40
2022-12-16T09:33:46.242Z,6.77
2022-12-16T09:36:32.258Z,11.33
2022-12-16T09:39:19.889Z,9.83
2022-12-16T09:42:19.753Z,14.37
2022-12-16T09:45:14.582Z,6.47
2022-12-16T09:48:11.602Z,7.87
2022-12-16T09:51:00.040Z,16.80
2022-12-16T09:53:49.708Z,7.93
2022-12-16T09:56:56.286Z,14.10
2022-12-16T09:59:47.203Z,5.20
2022-12-16T10:02:36.378Z,7.00
2022-12-16T10:05:27.727Z,10.07
2022-12-16T10:08:19.271Z,6.13
2022-12-16T10:11:13.241Z,3.77
2022-12-16T10:14:06.945Z,10.13
2022-12-16T10:17:02.375Z,10.90
2022-12-16T10:19:56.938Z,8.13
2022-12-16T10:23:04.031Z,10.63
2022-12-16T10:25:57.761Z,5.67
2022-12-16T10:28:57.942Z,7.03
2022-12-16T10:31:46.297Z,6.60
2022-12-16T10:34:34.104Z,5.57
2022-12-16T10:37:21.417Z,6.67
2022-12-16T10:40:11.309Z,6.80
2022-12-16T10:43:06.793Z,5.30
2022-12-16T10:46:01.383Z,19.40
2022-12-16T10:48:56.618Z,6.07
2022-12-16T10:51:46.907Z,10.37
2022-12-16T10:54:47.378Z,9.03
2022-12-16T10:57:39.006Z,16.57
2022-12-16T11:00:31.619Z,7.30
2022-12-16T11:03:36.512Z,7.67
2022-12-16T11:06:24.952Z,9.13
2022-12-16T11:09:11.348Z,8.80
2022-12-16T11:11:57.414Z,10.73
2022-12-16T11:17:51.613Z,10.23
2022-12-16T11:20:40.405Z,11.13
2022-12-16T11:23:33.810Z,11.30
2022-12-16T11:26:31.720Z,12.60
2022-12-16T11:29:29.771Z,12.13
2022-12-16T11:32:20.237Z,13.37
2022-12-16T11:35:11.286Z,15.53
2022-12-16T11:37:59.710Z,12.10
2022-12-16T11:40:49.337Z,17.40
2022-12-16T11:43:43.270Z,15.07
2022-12-16T11:46:43.987Z,12.70
2022-12-16T11:49:36.374Z,15.03
2022-12-16T11:52:40.222Z,12.97
2022-12-16T11:58:55.777Z,19.80
2022-12-16T12:01:49.115Z,16.20
2022-12-16T12:04:35.153Z,18.10
2022-12-16T12:07:45.689Z,13.87
2022-12-16T12:10:56.911Z,17.93
2022-12-16T12:14:00.896Z,20.03
2022-12-16T12:16:58.890Z,14.53
2022-12-16T12:19:56.559Z,17.00
2022-12-16T12:22:53.207Z,18.97
2022-12-16T12:25:44.234Z,18.43
2022-12-16T12:28:41.844Z,19.87
2022-12-16T12:31:43.410Z,18.47
2022-12-16T12:34:35.831Z,25.43
2022-12-16T12:37:28.176Z,17.97
2022-12-16T12:40:23.145Z,18.73
2022-12-16T12:43:11.824Z,22.90
2022-12-16T12:46:09.460Z,18.90
2022-12-16T12:49:05.358Z,22.67
2022-12-16T12:52:02.776Z,20.63
2022-12-16T12:54:56.091Z,20.70
2022-12-16T12:57:46.370Z,19.30
2022-12-16T13:00:36.827Z,16.87
2022-12-16T13:03:32.151Z,18.50
2022-12-16T13:06:20.575Z,22.37
2022-12-16T13:09:17.287Z,17.30
2022-12-16T13:12:40.874Z,18.80
2022-12-16T13:15:29.219Z,17.47
2022-12-16T13:18:42.638Z,18.17
2022-12-16T13:22:04.272Z,18.23
2022-12-16T13:25:00.935Z,20.10
2022-12-16T13:27:53.887Z,22.87
2022-12-16T13:30:42.857Z,19.33
2022-12-16T13:33:46.730Z,18.83
2022-12-16T13:36:35.647Z,24.83
2022-12-16T13:39:39.778Z,21.33
2022-12-16T13:42:50.011Z,31.00
2022-12-16T13:45:48.374Z,23.57
2022-12-16T13:48:56.058Z,32.20
2022-12-16T13:52:24.808Z,21.83
2022-12-16T13:55:34.300Z,18.83
2022-12-16T13:58:26.701Z,25.60
2022-12-16T14:01:25.137Z,23.27
2022-12-16T14:04:11.990Z,21.50
2022-12-16T14:06:59.275Z,23.67
2022-12-16T14:09:53.560Z,25.93
2022-12-16T14:12:56.125Z,24.70
2022-12-16T14:15:46.897Z,26.03
2022-12-16T14:18:45.379Z,26.97
2022-12-16T14:21:38.435Z,23.63
2022-12-16T14:24:30.896Z,23.87
2022-12-16T14:27:23.416Z,25.77
2022-12-16T14:30:10.909Z,27.20
2022-12-16T14:32:56.775Z,25.43
2022-12-16T14:35:44.143Z,23.90
2022-12-16T14:38:41.590Z,27.33
2022-12-16T14:41:32.483Z,25.20
2022-12-16T14:44:19.068Z,26.33
2022-12-16T14:47:09.663Z,28.93
2022-12-16T14:50:06.588Z,25.87
2022-12-16T14:52:52.524Z,22.83
2022-12-16T14:55:43.634Z,32.87
2022-12-16T14:58:32.114Z,28.90
2022-12-16T15:01:21.970Z,27.67
2022-12-16T15:04:09.716Z,25.67
2022-12-16T15:06:59.691Z,26.03
2022-12-16T15:09:50.932Z,26.83
2022-12-16T15:12:39.753Z,26.70
2022-12-16T15:15:31.493Z,23.90
2022-12-16T15:18:18.738Z,27.53
2022-12-16T15:21:09.847Z,26.77
2022-12-16T15:24:00.219Z,23.13
2022-12-16T15:26:49.938Z,25.03
2022-12-16T15:29:51.849Z,31.57
2022-12-16T15:32:48.762Z,26.97
2022-12-16T15:35:47.247Z,30.83
2022-12-16T15:38:45.631Z,26.43
2022-12-16T15:41:41.981Z,28.27
2022-12-16T15:44:35.961Z,29.30
2022-12-16T15:47:22.348Z,29.40
2022-12-16T15:50:15.278Z,30.13
2022-12-16T15:53:02.235Z,30.77
2022-12-16T15:55:52.257Z,29.43
2022-12-16T15:58:41.541Z,33.40
2022-12-16T16:01:28.427Z,34.10
2022-12-16T16:04:17.174Z,35.90
2022-12-16T16:07:07.177Z,33.50
2022-12-16T16:09:56.703Z,29.17
2022-12-16T16:12:44.253Z,27.73
2022-12-16T16:15:31.919Z,31.90
2022-12-16T16:18:21.188Z,30.93
2022-12-16T16:21:07.742Z,38.97
2022-12-16T16:23:54.565Z,32.53
2022-12-16T16:26:44.586Z,31.70
2022-12-16T16:29:32.142Z,27.33
2022-12-16T16:32:17.923Z,32.73
2022-12-16T16:35:03.922Z,35.00
2022-12-16T16:37:50.142Z,30.40
2022-12-16T16:40:42.053Z,27.23
2022-12-16T16:43:27.918Z,27.30
2022-12-16T16:46:15.242Z,32.60
2022-12-16T16:49:10.046Z,29.93
2022-12-16T16:51:56.227Z,34.40
2022-12-16T16:54:42.569Z,35.23
2022-12-16T16:57:29.121Z,46.80
2022-12-16T17:00:15.158Z,107.57
2022-12-16T17:03:02.804Z,78.73
2022-12-16T17:05:51.086Z,58.97
2022-12-16T17:08:37.164Z,44.17
2022-12-16T17:11:29.459Z,43.40
2022-12-16T17:14:15.356Z,43.80
2022-12-16T17:17:01.210Z,47.40
2022-12-16T17:19:48.357Z,41.17
2022-12-16T17:22:34.584Z,37.47
2022-12-16T17:25:20.374Z,33.97
2022-12-16T17:28:06.142Z,38.00
2022-12-16T17:30:52.186Z,43.13
2022-12-16T17:33:38.213Z,45.23
2022-12-16T17:36:31.908Z,37.07
2022-12-16T17:39:18.531Z,40.87
2022-12-16T17:42:04.947Z,43.20
2022-12-16T17:44:51.171Z,46.13
2022-12-16T17:47:37.634Z,45.77
2022-12-16T17:50:25.138Z,46.30
2022-12-16T17:53:14.210Z,38.90
2022-12-16T17:56:00.279Z,38.23
2022-12-16T17:58:50.934Z,42.53
2022-12-16T18:01:37.486Z,38.17
2022-12-16T18:04:23.886Z,42.27
2022-12-16T18:07:10.332Z,35.83
2022-12-16T18:09:57.887Z,40.30
2022-12-16T18:12:44.749Z,39.63
2022-12-16T18:15:30.630Z,40.53
2022-12-16T18:18:28.010Z,43.07
2022-12-16T18:21:25.693Z,40.87
2022-12-16T18:24:11.550Z,50.50
2022-12-16T18:26:58.968Z,34.90
2022-12-16T18:29:45.115Z,37.00
2022-12-16T18:32:35.049Z,35.97
2022-12-16T18:35:21.865Z,39.43
2022-12-16T18:38:11.033Z,42.37
2022-12-16T18:41:13.830Z,37.97
2022-12-16T18:44:01.233Z,35.67
2022-12-16T18:46:47.003Z,47.00
2022-12-16T18:49:33.232Z,45.03
2022-12-16T18:52:19.207Z,56.60
2022-12-16T18:55:04.880Z,41.30
2022-12-16T18:57:50.801Z,40.63
2022-12-16T19:00:38.120Z,47.33
2022-12-16T19:03:24.134Z,42.77
2022-12-16T19:06:14.520Z,42.07
2022-12-16T19:09:00.822Z,51.83
2022-12-16T19:11:47.401Z,49.70
2022-12-16T19:14:33.661Z,37.10
2022-12-16T19:17:21.345Z,44.73
2022-12-16T19:20:07.229Z,40.90
2022-12-16T19:22:52.380Z,38.57
2022-12-16T19:25:40.865Z,38.03
2022-12-16T19:28:31.714Z,41.20
2022-12-16T19:31:18.371Z,44.10
2022-12-16T19:34:06.965Z,44.33
2022-12-16T19:36:54.167Z,111.20
2022-12-16T19:39:39.891Z,49.33
2022-12-16T19:42:25.941Z,44.37
2022-12-16T19:45:20.197Z,59.83
2022-12-16T19:48:08.335Z,54.90
2022-12-16T19:50:56.616Z,53.97
2022-12-16T19:53:42.963Z,59.60
2022-12-16T19:56:28.769Z,58.22
2022-12-16T19:59:14.808Z,47.67
2022-12-16T20:02:01.065Z,56.88
2022-12-16T20:04:47.133Z,55.63
2022-12-16T20:07:36.674Z,54.37
2022-12-16T20:10:23.540Z,55.77
2022-12-16T20:13:09.430Z,48.73
2022-12-16T20:15:55.495Z,58.00
2022-12-16T20:18:42.137Z,44.97
2022-12-16T20:21:28.362Z,64.28
2022-12-16T20:24:16.150Z,47.50
2022-12-16T20:27:01.903Z,56.90
2022-12-16T20:29:47.706Z,49.23
2022-12-16T20:32:38.899Z,41.87
2022-12-16T20:35:25.196Z,50.57
2022-12-16T20:38:12.148Z,47.30
2022-12-16T20:40:59.344Z,52.63
2022-12-16T20:43:45.023Z,47.00
2022-12-16T20:46:30.896Z,48.60
2022-12-16T20:49:17.062Z,51.30
2022-12-16T20:52:02.715Z,47.00
2022-12-16T20:54:48.845Z,46.33
2022-12-16T20:57:36.419Z,57.30
2022-12-16T21:00:23.007Z,51.60
2022-12-16T21:03:08.901Z,49.03
2022-12-16T21:09:01.217Z,47.63
2022-12-16T21:11:47.111Z,48.17
2022-12-16T21:14:34.779Z,47.40
2022-12-16T21:17:20.748Z,40.23
2022-12-16T21:20:06.636Z,61.83
2022-12-16T21:22:52.587Z,51.27
2022-12-16T21:25:38.860Z,48.83
2022-12-16T21:28:25.106Z,50.63
2022-12-16T21:31:12.241Z,46.67
2022-12-16T21:33:58.184Z,53.53
2022-12-16T21:36:44.294Z,53.23
2022-12-16T21:39:29.966Z,47.87
2022-12-16T21:42:16.098Z,49.83
2022-12-16T21:45:02.490Z,56.90
2022-12-16T21:48:01.169Z,53.37
2022-12-16T21:50:47.609Z,51.07
2022-12-16T21:53:36.822Z,53.83
2022-12-16T21:56:37.841Z,58.40
2022-12-16T21:59:23.633Z,50.47
2022-12-16T22:02:09.305Z,52.23
2022-12-16T22:04:56.843Z,58.93
2022-12-16T22:07:44.310Z,48.37
2022-12-16T22:10:30.392Z,47.50
2022-12-16T22:13:17.650Z,47.87
2022-12-16T22:16:13.724Z,43.63
2022-12-16T22:18:59.682Z,53.83
2022-12-16T22:21:47.038Z,52.97
2022-12-16T22:24:33.176Z,45.07
2022-12-16T22:27:18.917Z,48.77
2022-12-16T22:30:04.646Z,48.90
2022-12-16T22:32:50.336Z,50.80
2022-12-16T22:35:36.182Z,54.70
2022-12-16T22:38:23.453Z,51.80
2022-12-16T22:41:13.132Z,48.67
2022-12-16T22:43:59.279Z,45.73
2022-12-16T22:46:59.874Z,46.73
2022-12-16T22:49:45.751Z,51.33
2022-12-16T22:52:31.821Z,59.83
2022-12-16T22:55:18.994Z,39.67
2022-12-16T22:58:04.788Z,51.67
2022-12-16T23:00:52.063Z,50.20
2022-12-16T23:03:38.377Z,56.77
2022-12-16T23:06:24.570Z,46.23
2022-12-16T23:09:10.559Z,43.37
2022-12-16T23:11:59.425Z,45.57
2022-12-16T23:14:45.667Z,42.23
2022-12-16T23:17:31.873Z,45.10
2022-12-16T23:20:17.676Z,50.37
2022-12-16T23:23:03.494Z,49.47
2022-12-16T23:25:49.625Z,44.80
2022-12-16T23:28:33.347Z,47.33
2022-12-16T23:31:21.563Z,56.53
2022-12-16T23:34:07.832Z,49.43
2022-12-16T23:36:53.561Z,47.40
2022-12-16T23:39:39.459Z,45.53
2022-12-16T23:42:25.414Z,64.43
2022-12-16T23:45:12.525Z,54.90
2022-12-16T23:47:58.627Z,53.20
2022-12-16T23:50:44.489Z,52.73
2022-12-16T23:53:31.804Z,51.47
2022-12-16T23:56:19.519Z,51.83
2022-12-16T23:59:06.580Z,43.23
